sensor_id;sensor_type;location;lat;lon;timestamp;P1;P2;P0
49462;PMS5003;35357;51.722;0.500;2023-07-28T00:00:49;13;12;
49462;PMS5003;35357;51.722;0.500;2023-07-28T00:03:17;11;10;
49462;PMS5003;35357;51.722;0.500;2023-07-28T00:05:44;10;10;
49462;PMS5003;35357;51.722;0.500;2023-07-28T00:08:11;10;10;
49462;PMS5003;35357;51.722;0.500;2023-07-28T00:10:39;9;9;
49462;PMS5003;35357;51.722;0.500;2023-07-28T00:13:06;14;14;
49462;PMS5003;35357;51.722;0.500;2023-07-28T00:15:34;10;10;
49462;PMS5003;35357;51.722;0.500;2023-07-28T00:18:02;9;9;
49462;PMS5003;35357;51.722;0.500;2023-07-28T00:20:29;11;11;
49462;PMS5003;35357;51.722;0.500;2023-07-28T00:22:56;9;8;
49462;PMS5003;35357;51.722;0.500;2023-07-28T00:25:24;10;9;
49462;PMS5003;35357;51.722;0.500;2023-07-28T00:27:50;8;8;
49462;PMS5003;35357;51.722;0.500;2023-07-28T00:30:17;8;8;
49462;PMS5003;35357;51.722;0.500;2023-07-28T00:32:45;8;8;
49462;PMS5003;35357;51.722;0.500;2023-07-28T00:35:11;6;5;
49462;PMS5003;35357;51.722;0.500;2023-07-28T00:37:38;8;8;
49462;PMS5003;35357;51.722;0.500;2023-07-28T00:40:06;8;8;
49462;PMS5003;35357;51.722;0.500;2023-07-28T00:42:34;6;6;
49462;PMS5003;35357;51.722;0.500;2023-07-28T00:45:01;8;8;
49462;PMS5003;35357;51.722;0.500;2023-07-28T00:47:30;6;6;
49462;PMS5003;35357;51.722;0.500;2023-07-28T00:49:57;8;8;
49462;PMS5003;35357;51.722;0.500;2023-07-28T00:52:25;4;4;
49462;PMS5003;35357;51.722;0.500;2023-07-28T00:54:52;5;4;
49462;PMS5003;35357;51.722;0.500;2023-07-28T00:57:20;5;4;
49462;PMS5003;35357;51.722;0.500;2023-07-28T00:59:46;4;4;
49462;PMS5003;35357;51.722;0.500;2023-07-28T01:02:13;4;4;
49462;PMS5003;35357;51.722;0.500;2023-07-28T01:04:41;5;4;
49462;PMS5003;35357;51.722;0.500;2023-07-28T01:07:09;5;5;
49462;PMS5003;35357;51.722;0.500;2023-07-28T01:09:43;4;4;
49462;PMS5003;35357;51.722;0.500;2023-07-28T01:12:16;3;3;
49462;PMS5003;35357;51.722;0.500;2023-07-28T01:14:43;4;4;
49462;PMS5003;35357;51.722;0.500;2023-07-28T01:17:10;3;3;
49462;PMS5003;35357;51.722;0.500;2023-07-28T01:19:37;4;4;
49462;PMS5003;35357;51.722;0.500;2023-07-28T01:22:21;4;4;
49462;PMS5003;35357;51.722;0.500;2023-07-28T01:25:11;2;2;
49462;PMS5003;35357;51.722;0.500;2023-07-28T01:27:44;2;2;
49462;PMS5003;35357;51.722;0.500;2023-07-28T01:30:12;3;3;
49462;PMS5003;35357;51.722;0.500;2023-07-28T01:32:40;3;3;
49462;PMS5003;35357;51.722;0.500;2023-07-28T01:35:07;1;1;
49462;PMS5003;35357;51.722;0.500;2023-07-28T01:37:35;2;2;
49462;PMS5003;35357;51.722;0.500;2023-07-28T01:40:02;2;2;
49462;PMS5003;35357;51.722;0.500;2023-07-28T01:42:30;3;2;
49462;PMS5003;35357;51.722;0.500;2023-07-28T01:44:57;3;3;
49462;PMS5003;35357;51.722;0.500;2023-07-28T01:47:24;2;2;
49462;PMS5003;35357;51.722;0.500;2023-07-28T01:49:51;2;2;
49462;PMS5003;35357;51.722;0.500;2023-07-28T01:52:18;1;1;
49462;PMS5003;35357;51.722;0.500;2023-07-28T01:54:45;2;2;
49462;PMS5003;35357;51.722;0.500;2023-07-28T01:57:12;1;1;
49462;PMS5003;35357;51.722;0.500;2023-07-28T01:59:39;1;1;
49462;PMS5003;35357;51.722;0.500;2023-07-28T02:02:06;1;1;
49462;PMS5003;35357;51.722;0.500;2023-07-28T02:04:33;2;2;
49462;PMS5003;35357;51.722;0.500;2023-07-28T02:07:00;1;1;
49462;PMS5003;35357;51.722;0.500;2023-07-28T02:09:28;2;1;
49462;PMS5003;35357;51.722;0.500;2023-07-28T02:11:55;1;1;
49462;PMS5003;35357;51.722;0.500;2023-07-28T02:14:23;1;1;
49462;PMS5003;35357;51.722;0.500;2023-07-28T02:16:51;1;1;
49462;PMS5003;35357;51.722;0.500;2023-07-28T02:19:17;1;1;
49462;PMS5003;35357;51.722;0.500;2023-07-28T02:21:44;0;0;
49462;PMS5003;35357;51.722;0.500;2023-07-28T02:24:11;1;0;
49462;PMS5003;35357;51.722;0.500;2023-07-28T02:26:38;1;1;
49462;PMS5003;35357;51.722;0.500;2023-07-28T02:29:05;2;2;
49462;PMS5003;35357;51.722;0.500;2023-07-28T02:31:32;2;2;
49462;PMS5003;35357;51.722;0.500;2023-07-28T02:33:59;1;1;
49462;PMS5003;35357;51.722;0.500;2023-07-28T02:36:25;2;1;
49462;PMS5003;35357;51.722;0.500;2023-07-28T02:38:52;1;1;
49462;PMS5003;35357;51.722;0.500;2023-07-28T02:41:20;1;1;
49462;PMS5003;35357;51.722;0.500;2023-07-28T02:43:47;2;2;
49462;PMS5003;35357;51.722;0.500;2023-07-28T02:46:13;1;1;
49462;PMS5003;35357;51.722;0.500;2023-07-28T02:48:40;1;1;
49462;PMS5003;35357;51.722;0.500;2023-07-28T02:51:07;0;0;
49462;PMS5003;35357;51.722;0.500;2023-07-28T02:53:33;1;1;
49462;PMS5003;35357;51.722;0.500;2023-07-28T02:56:00;2;2;
49462;PMS5003;35357;51.722;0.500;2023-07-28T02:58:28;1;1;
49462;PMS5003;35357;51.722;0.500;2023-07-28T03:00:54;2;2;
49462;PMS5003;35357;51.722;0.500;2023-07-28T03:03:21;1;1;
49462;PMS5003;35357;51.722;0.500;2023-07-28T03:05:51;2;2;
49462;PMS5003;35357;51.722;0.500;2023-07-28T03:08:19;2;2;
49462;PMS5003;35357;51.722;0.500;2023-07-28T03:10:46;2;2;
49462;PMS5003;35357;51.722;0.500;2023-07-28T03:13:13;2;2;
49462;PMS5003;35357;51.722;0.500;2023-07-28T03:15:40;3;2;
49462;PMS5003;35357;51.722;0.500;2023-07-28T03:18:07;1;1;
49462;PMS5003;35357;51.722;0.500;2023-07-28T03:20:34;2;2;
49462;PMS5003;35357;51.722;0.500;2023-07-28T03:23:01;1;1;
49462;PMS5003;35357;51.722;0.500;2023-07-28T03:25:29;2;2;
49462;PMS5003;35357;51.722;0.500;2023-07-28T03:27:56;1;1;
49462;PMS5003;35357;51.722;0.500;2023-07-28T03:30:23;2;2;
49462;PMS5003;35357;51.722;0.500;2023-07-28T03:32:50;3;2;
49462;PMS5003;35357;51.722;0.500;2023-07-28T03:35:16;1;1;
49462;PMS5003;35357;51.722;0.500;2023-07-28T03:37:43;1;1;
49462;PMS5003;35357;51.722;0.500;2023-07-28T03:40:11;3;2;
49462;PMS5003;35357;51.722;0.500;2023-07-28T03:42:38;2;2;
49462;PMS5003;35357;51.722;0.500;2023-07-28T03:45:06;2;2;
49462;PMS5003;35357;51.722;0.500;2023-07-28T03:47:34;2;2;
49462;PMS5003;35357;51.722;0.500;2023-07-28T03:50:00;1;1;
49462;PMS5003;35357;51.722;0.500;2023-07-28T03:52:27;2;2;
49462;PMS5003;35357;51.722;0.500;2023-07-28T03:54:54;1;1;
49462;PMS5003;35357;51.722;0.500;2023-07-28T03:57:21;2;2;
49462;PMS5003;35357;51.722;0.500;2023-07-28T03:59:47;2;2;
49462;PMS5003;35357;51.722;0.500;2023-07-28T04:02:14;2;2;
49462;PMS5003;35357;51.722;0.500;2023-07-28T04:04:41;1;0;
49462;PMS5003;35357;51.722;0.500;2023-07-28T04:07:08;1;1;
49462;PMS5003;35357;51.722;0.500;2023-07-28T04:09:35;1;1;
49462;PMS5003;35357;51.722;0.500;2023-07-28T04:12:02;1;1;
49462;PMS5003;35357;51.722;0.500;2023-07-28T04:14:29;1;1;
49462;PMS5003;35357;51.722;0.500;2023-07-28T04:16:57;0;0;
49462;PMS5003;35357;51.722;0.500;2023-07-28T04:19:24;1;1;
49462;PMS5003;35357;51.722;0.500;2023-07-28T04:21:52;2;2;
49462;PMS5003;35357;51.722;0.500;2023-07-28T04:24:20;2;2;
49462;PMS5003;35357;51.722;0.500;2023-07-28T04:26:47;1;1;
49462;PMS5003;35357;51.722;0.500;2023-07-28T04:29:15;2;2;
49462;PMS5003;35357;51.722;0.500;2023-07-28T04:31:42;1;1;
49462;PMS5003;35357;51.722;0.500;2023-07-28T04:34:09;1;1;
49462;PMS5003;35357;51.722;0.500;2023-07-28T04:36:37;2;2;
49462;PMS5003;35357;51.722;0.500;2023-07-28T04:39:03;2;2;
49462;PMS5003;35357;51.722;0.500;2023-07-28T04:41:30;2;1;
49462;PMS5003;35357;51.722;0.500;2023-07-28T04:43:57;1;1;
49462;PMS5003;35357;51.722;0.500;2023-07-28T04:46:24;1;1;
49462;PMS5003;35357;51.722;0.500;2023-07-28T04:48:53;2;2;
49462;PMS5003;35357;51.722;0.500;2023-07-28T04:51:20;2;2;
49462;PMS5003;35357;51.722;0.500;2023-07-28T04:53:47;2;1;
49462;PMS5003;35357;51.722;0.500;2023-07-28T04:56:14;2;1;
49462;PMS5003;35357;51.722;0.500;2023-07-28T04:58:41;0;0;
49462;PMS5003;35357;51.722;0.500;2023-07-28T05:01:08;2;2;
49462;PMS5003;35357;51.722;0.500;2023-07-28T05:03:35;2;2;
49462;PMS5003;35357;51.722;0.500;2023-07-28T05:06:03;1;1;
49462;PMS5003;35357;51.722;0.500;2023-07-28T05:08:30;1;1;
49462;PMS5003;35357;51.722;0.500;2023-07-28T05:10:58;1;1;
49462;PMS5003;35357;51.722;0.500;2023-07-28T05:13:25;2;1;
49462;PMS5003;35357;51.722;0.500;2023-07-28T05:15:51;2;2;
49462;PMS5003;35357;51.722;0.500;2023-07-28T05:18:18;2;2;
49462;PMS5003;35357;51.722;0.500;2023-07-28T05:20:46;1;1;
49462;PMS5003;35357;51.722;0.500;2023-07-28T05:23:12;1;1;
49462;PMS5003;35357;51.722;0.500;2023-07-28T05:25:40;2;2;
49462;PMS5003;35357;51.722;0.500;2023-07-28T05:28:08;1;1;
49462;PMS5003;35357;51.722;0.500;2023-07-28T05:30:35;1;1;
49462;PMS5003;35357;51.722;0.500;2023-07-28T05:33:02;0;0;
49462;PMS5003;35357;51.722;0.500;2023-07-28T05:35:29;1;1;
49462;PMS5003;35357;51.722;0.500;2023-07-28T05:37:57;3;2;
49462;PMS5003;35357;51.722;0.500;2023-07-28T05:40:25;1;1;
49462;PMS5003;35357;51.722;0.500;2023-07-28T05:42:52;2;2;
49462;PMS5003;35357;51.722;0.500;2023-07-28T05:45:19;2;2;
49462;PMS5003;35357;51.722;0.500;2023-07-28T05:49:56;1;1;
49462;PMS5003;35357;51.722;0.500;2023-07-28T05:52:24;1;1;
49462;PMS5003;35357;51.722;0.500;2023-07-28T05:54:51;1;1;
49462;PMS5003;35357;51.722;0.500;2023-07-28T05:57:19;0;0;
49462;PMS5003;35357;51.722;0.500;2023-07-28T05:59:46;2;1;
49462;PMS5003;35357;51.722;0.500;2023-07-28T06:02:14;1;1;
49462;PMS5003;35357;51.722;0.500;2023-07-28T06:04:42;1;1;
49462;PMS5003;35357;51.722;0.500;2023-07-28T06:07:09;1;1;
49462;PMS5003;35357;51.722;0.500;2023-07-28T06:09:37;1;1;
49462;PMS5003;35357;51.722;0.500;2023-07-28T06:12:05;1;1;
49462;PMS5003;35357;51.722;0.500;2023-07-28T06:14:33;0;0;
49462;PMS5003;35357;51.722;0.500;2023-07-28T06:17:00;0;0;
49462;PMS5003;35357;51.722;0.500;2023-07-28T06:19:28;2;1;
49462;PMS5003;35357;51.722;0.500;2023-07-28T06:21:56;1;1;
49462;PMS5003;35357;51.722;0.500;2023-07-28T06:24:22;1;1;
49462;PMS5003;35357;51.722;0.500;2023-07-28T06:26:50;0;0;
49462;PMS5003;35357;51.722;0.500;2023-07-28T06:29:17;1;1;
49462;PMS5003;35357;51.722;0.500;2023-07-28T06:31:44;2;2;
49462;PMS5003;35357;51.722;0.500;2023-07-28T06:34:11;1;1;
49462;PMS5003;35357;51.722;0.500;2023-07-28T06:36:38;1;1;
49462;PMS5003;35357;51.722;0.500;2023-07-28T06:39:05;1;1;
49462;PMS5003;35357;51.722;0.500;2023-07-28T06:41:33;0;0;
49462;PMS5003;35357;51.722;0.500;2023-07-28T06:44:00;1;1;
49462;PMS5003;35357;51.722;0.500;2023-07-28T06:46:28;1;1;
49462;PMS5003;35357;51.722;0.500;2023-07-28T06:48:55;1;1;
49462;PMS5003;35357;51.722;0.500;2023-07-28T06:51:22;1;1;
49462;PMS5003;35357;51.722;0.500;2023-07-28T06:53:49;1;1;
49462;PMS5003;35357;51.722;0.500;2023-07-28T06:56:17;1;1;
49462;PMS5003;35357;51.722;0.500;2023-07-28T06:58:44;0;0;
49462;PMS5003;35357;51.722;0.500;2023-07-28T07:01:12;1;1;
49462;PMS5003;35357;51.722;0.500;2023-07-28T07:03:38;1;1;
49462;PMS5003;35357;51.722;0.500;2023-07-28T07:06:05;1;1;
49462;PMS5003;35357;51.722;0.500;2023-07-28T07:08:33;1;1;
49462;PMS5003;35357;51.722;0.500;2023-07-28T07:11:00;1;1;
49462;PMS5003;35357;51.722;0.500;2023-07-28T07:13:27;1;1;
49462;PMS5003;35357;51.722;0.500;2023-07-28T07:15:54;0;0;
49462;PMS5003;35357;51.722;0.500;2023-07-28T07:18:22;1;1;
49462;PMS5003;35357;51.722;0.500;2023-07-28T07:20:49;1;1;
49462;PMS5003;35357;51.722;0.500;2023-07-28T07:23:17;1;1;
49462;PMS5003;35357;51.722;0.500;2023-07-28T07:25:44;1;1;
49462;PMS5003;35357;51.722;0.500;2023-07-28T07:28:11;2;2;
49462;PMS5003;35357;51.722;0.500;2023-07-28T07:30:38;0;0;
49462;PMS5003;35357;51.722;0.500;2023-07-28T07:33:05;0;0;
49462;PMS5003;35357;51.722;0.500;2023-07-28T07:35:35;1;1;
49462;PMS5003;35357;51.722;0.500;2023-07-28T07:38:03;1;1;
49462;PMS5003;35357;51.722;0.500;2023-07-28T07:40:31;0;0;
49462;PMS5003;35357;51.722;0.500;2023-07-28T07:42:57;1;1;
49462;PMS5003;35357;51.722;0.500;2023-07-28T07:45:25;0;0;
49462;PMS5003;35357;51.722;0.500;2023-07-28T07:47:52;0;0;
49462;PMS5003;35357;51.722;0.500;2023-07-28T07:50:18;0;0;
49462;PMS5003;35357;51.722;0.500;2023-07-28T07:52:46;0;0;
49462;PMS5003;35357;51.722;0.500;2023-07-28T07:55:14;1;1;
49462;PMS5003;35357;51.722;0.500;2023-07-28T07:57:41;1;1;
49462;PMS5003;35357;51.722;0.500;2023-07-28T08:00:09;0;0;
49462;PMS5003;35357;51.722;0.500;2023-07-28T08:02:37;0;0;
49462;PMS5003;35357;51.722;0.500;2023-07-28T08:05:05;1;1;
49462;PMS5003;35357;51.722;0.500;2023-07-28T08:07:33;1;1;
49462;PMS5003;35357;51.722;0.500;2023-07-28T08:10:00;0;0;
49462;PMS5003;35357;51.722;0.500;2023-07-28T08:12:26;0;0;
49462;PMS5003;35357;51.722;0.500;2023-07-28T08:14:53;0;0;
49462;PMS5003;35357;51.722;0.500;2023-07-28T08:17:20;1;1;
49462;PMS5003;35357;51.722;0.500;2023-07-28T08:19:48;0;0;
49462;PMS5003;35357;51.722;0.500;2023-07-28T08:22:15;0;0;
49462;PMS5003;35357;51.722;0.500;2023-07-28T08:24:43;1;1;
49462;PMS5003;35357;51.722;0.500;2023-07-28T08:27:09;1;1;
49462;PMS5003;35357;51.722;0.500;2023-07-28T08:29:36;1;1;
49462;PMS5003;35357;51.722;0.500;2023-07-28T08:32:03;0;0;
49462;PMS5003;35357;51.722;0.500;2023-07-28T08:34:30;0;0;
49462;PMS5003;35357;51.722;0.500;2023-07-28T08:36:57;0;0;
49462;PMS5003;35357;51.722;0.500;2023-07-28T08:39:24;0;0;
49462;PMS5003;35357;51.722;0.500;2023-07-28T08:41:57;0;0;
49462;PMS5003;35357;51.722;0.500;2023-07-28T08:44:24;0;0;
49462;PMS5003;35357;51.722;0.500;2023-07-28T08:46:51;0;0;
49462;PMS5003;35357;51.722;0.500;2023-07-28T08:49:18;0;0;
49462;PMS5003;35357;51.722;0.500;2023-07-28T08:51:48;0;0;
49462;PMS5003;35357;51.722;0.500;2023-07-28T08:54:16;1;1;
49462;PMS5003;35357;51.722;0.500;2023-07-28T08:56:43;0;0;
49462;PMS5003;35357;51.722;0.500;2023-07-28T08:59:10;0;0;
49462;PMS5003;35357;51.722;0.500;2023-07-28T09:01:38;1;1;
49462;PMS5003;35357;51.722;0.500;2023-07-28T09:04:09;1;1;
49462;PMS5003;35357;51.722;0.500;2023-07-28T09:06:37;0;0;
49462;PMS5003;35357;51.722;0.500;2023-07-28T09:09:05;1;1;
49462;PMS5003;35357;51.722;0.500;2023-07-28T09:11:33;1;1;
49462;PMS5003;35357;51.722;0.500;2023-07-28T09:13:59;0;0;
49462;PMS5003;35357;51.722;0.500;2023-07-28T09:16:27;1;1;
49462;PMS5003;35357;51.722;0.500;2023-07-28T09:18:58;1;1;
49462;PMS5003;35357;51.722;0.500;2023-07-28T09:21:31;1;1;
49462;PMS5003;35357;51.722;0.500;2023-07-28T09:23:59;1;1;
49462;PMS5003;35357;51.722;0.500;2023-07-28T09:26:35;2;2;
49462;PMS5003;35357;51.722;0.500;2023-07-28T09:29:10;1;1;
49462;PMS5003;35357;51.722;0.500;2023-07-28T09:31:38;0;0;
49462;PMS5003;35357;51.722;0.500;2023-07-28T09:34:06;1;1;
49462;PMS5003;35357;51.722;0.500;2023-07-28T09:36:33;2;2;
49462;PMS5003;35357;51.722;0.500;2023-07-28T09:39:01;1;1;
49462;PMS5003;35357;51.722;0.500;2023-07-28T09:41:29;2;2;
49462;PMS5003;35357;51.722;0.500;2023-07-28T09:43:56;0;0;
49462;PMS5003;35357;51.722;0.500;2023-07-28T09:46:23;3;3;
49462;PMS5003;35357;51.722;0.500;2023-07-28T09:48:55;2;2;
49462;PMS5003;35357;51.722;0.500;2023-07-28T09:51:26;2;2;
49462;PMS5003;35357;51.722;0.500;2023-07-28T09:53:58;2;2;
49462;PMS5003;35357;51.722;0.500;2023-07-28T09:56:30;2;2;
49462;PMS5003;35357;51.722;0.500;2023-07-28T09:59:01;3;3;
49462;PMS5003;35357;51.722;0.500;2023-07-28T10:01:34;1;1;
49462;PMS5003;35357;51.722;0.500;2023-07-28T10:04:01;3;3;
49462;PMS5003;35357;51.722;0.500;2023-07-28T10:06:29;2;2;
49462;PMS5003;35357;51.722;0.500;2023-07-28T10:08:58;3;3;
49462;PMS5003;35357;51.722;0.500;2023-07-28T10:11:26;2;2;
49462;PMS5003;35357;51.722;0.500;2023-07-28T10:13:54;3;3;
49462;PMS5003;35357;51.722;0.500;2023-07-28T10:16:29;2;2;
49462;PMS5003;35357;51.722;0.500;2023-07-28T10:18:58;2;2;
49462;PMS5003;35357;51.722;0.500;2023-07-28T10:21:27;3;3;
49462;PMS5003;35357;51.722;0.500;2023-07-28T10:23:54;3;3;
49462;PMS5003;35357;51.722;0.500;2023-07-28T10:26:38;3;3;
49462;PMS5003;35357;51.722;0.500;2023-07-28T10:29:09;2;2;
49462;PMS5003;35357;51.722;0.500;2023-07-28T10:31:49;2;2;
49462;PMS5003;35357;51.722;0.500;2023-07-28T10:34:17;2;2;
49462;PMS5003;35357;51.722;0.500;2023-07-28T10:36:45;2;2;
49462;PMS5003;35357;51.722;0.500;2023-07-28T10:39:13;2;2;
49462;PMS5003;35357;51.722;0.500;2023-07-28T10:41:59;2;2;
49462;PMS5003;35357;51.722;0.500;2023-07-28T10:44:28;3;3;
49462;PMS5003;35357;51.722;0.500;2023-07-28T10:46:56;1;1;
49462;PMS5003;35357;51.722;0.500;2023-07-28T10:49:24;3;3;
49462;PMS5003;35357;51.722;0.500;2023-07-28T10:51:52;1;1;
49462;PMS5003;35357;51.722;0.500;2023-07-28T10:54:19;3;3;
49462;PMS5003;35357;51.722;0.500;2023-07-28T10:56:47;2;2;
49462;PMS5003;35357;51.722;0.500;2023-07-28T10:59:15;2;2;
49462;PMS5003;35357;51.722;0.500;2023-07-28T11:01:43;1;1;
49462;PMS5003;35357;51.722;0.500;2023-07-28T11:04:11;2;2;
49462;PMS5003;35357;51.722;0.500;2023-07-28T11:06:40;3;2;
49462;PMS5003;35357;51.722;0.500;2023-07-28T11:09:09;3;2;
49462;PMS5003;35357;51.722;0.500;2023-07-28T11:11:36;2;2;
49462;PMS5003;35357;51.722;0.500;2023-07-28T11:14:04;3;3;
49462;PMS5003;35357;51.722;0.500;2023-07-28T11:16:33;1;1;
49462;PMS5003;35357;51.722;0.500;2023-07-28T11:19:01;3;3;
49462;PMS5003;35357;51.722;0.500;2023-07-28T11:21:29;1;1;
49462;PMS5003;35357;51.722;0.500;2023-07-28T11:23:57;4;3;
49462;PMS5003;35357;51.722;0.500;2023-07-28T11:26:23;1;1;
49462;PMS5003;35357;51.722;0.500;2023-07-28T11:28:51;2;2;
49462;PMS5003;35357;51.722;0.500;2023-07-28T11:31:22;1;1;
49462;PMS5003;35357;51.722;0.500;2023-07-28T11:33:49;1;1;
49462;PMS5003;35357;51.722;0.500;2023-07-28T11:36:22;2;2;
49462;PMS5003;35357;51.722;0.500;2023-07-28T11:38:49;3;3;
49462;PMS5003;35357;51.722;0.500;2023-07-28T11:41:18;3;3;
49462;PMS5003;35357;51.722;0.500;2023-07-28T11:43:47;2;2;
49462;PMS5003;35357;51.722;0.500;2023-07-28T11:46:46;2;2;
49462;PMS5003;35357;51.722;0.500;2023-07-28T11:49:14;3;3;
49462;PMS5003;35357;51.722;0.500;2023-07-28T11:51:43;2;2;
49462;PMS5003;35357;51.722;0.500;2023-07-28T11:54:12;2;2;
49462;PMS5003;35357;51.722;0.500;2023-07-28T11:56:40;3;3;
49462;PMS5003;35357;51.722;0.500;2023-07-28T11:59:08;1;1;
49462;PMS5003;35357;51.722;0.500;2023-07-28T12:01:51;2;2;
49462;PMS5003;35357;51.722;0.500;2023-07-28T12:04:19;2;2;
49462;PMS5003;35357;51.722;0.500;2023-07-28T12:07:03;3;3;
49462;PMS5003;35357;51.722;0.500;2023-07-28T12:09:33;3;2;
49462;PMS5003;35357;51.722;0.500;2023-07-28T12:12:00;3;3;
49462;PMS5003;35357;51.722;0.500;2023-07-28T12:14:31;2;2;
49462;PMS5003;35357;51.722;0.500;2023-07-28T12:16:59;2;2;
49462;PMS5003;35357;51.722;0.500;2023-07-28T12:19:27;3;3;
49462;PMS5003;35357;51.722;0.500;2023-07-28T12:21:54;2;2;
49462;PMS5003;35357;51.722;0.500;2023-07-28T12:24:22;4;4;
49462;PMS5003;35357;51.722;0.500;2023-07-28T12:26:50;1;1;
49462;PMS5003;35357;51.722;0.500;2023-07-28T12:29:17;3;3;
49462;PMS5003;35357;51.722;0.500;2023-07-28T12:31:44;3;3;
49462;PMS5003;35357;51.722;0.500;2023-07-28T12:34:12;2;2;
49462;PMS5003;35357;51.722;0.500;2023-07-28T12:36:39;3;3;
49462;PMS5003;35357;51.722;0.500;2023-07-28T12:39:05;3;3;
49462;PMS5003;35357;51.722;0.500;2023-07-28T12:41:33;4;4;
49462;PMS5003;35357;51.722;0.500;2023-07-28T12:44:00;5;5;
49462;PMS5003;35357;51.722;0.500;2023-07-28T12:46:28;3;3;
49462;PMS5003;35357;51.722;0.500;2023-07-28T12:48:56;4;4;
49462;PMS5003;35357;51.722;0.500;2023-07-28T12:51:23;2;2;
49462;PMS5003;35357;51.722;0.500;2023-07-28T12:53:51;5;4;
49462;PMS5003;35357;51.722;0.500;2023-07-28T12:56:18;2;2;
49462;PMS5003;35357;51.722;0.500;2023-07-28T12:58:45;2;2;
49462;PMS5003;35357;51.722;0.500;2023-07-28T13:01:12;2;2;
49462;PMS5003;35357;51.722;0.500;2023-07-28T13:03:39;4;4;
49462;PMS5003;35357;51.722;0.500;2023-07-28T13:06:06;3;3;
49462;PMS5003;35357;51.722;0.500;2023-07-28T13:08:33;3;3;
49462;PMS5003;35357;51.722;0.500;2023-07-28T13:11:00;1;1;
49462;PMS5003;35357;51.722;0.500;2023-07-28T13:13:28;3;3;
49462;PMS5003;35357;51.722;0.500;2023-07-28T13:15:55;3;3;
49462;PMS5003;35357;51.722;0.500;2023-07-28T13:18:23;3;3;
49462;PMS5003;35357;51.722;0.500;2023-07-28T13:20:51;4;3;
49462;PMS5003;35357;51.722;0.500;2023-07-28T13:23:18;3;3;
49462;PMS5003;35357;51.722;0.500;2023-07-28T13:25:46;3;3;
49462;PMS5003;35357;51.722;0.500;2023-07-28T13:28:13;2;2;
49462;PMS5003;35357;51.722;0.500;2023-07-28T13:30:41;3;3;
49462;PMS5003;35357;51.722;0.500;2023-07-28T13:33:08;3;3;
49462;PMS5003;35357;51.722;0.500;2023-07-28T13:35:35;3;3;
49462;PMS5003;35357;51.722;0.500;2023-07-28T13:38:02;2;2;
49462;PMS5003;35357;51.722;0.500;2023-07-28T13:40:29;2;2;
49462;PMS5003;35357;51.722;0.500;2023-07-28T13:42:56;2;2;
49462;PMS5003;35357;51.722;0.500;2023-07-28T13:45:23;2;2;
49462;PMS5003;35357;51.722;0.500;2023-07-28T13:47:51;1;1;
49462;PMS5003;35357;51.722;0.500;2023-07-28T13:50:18;2;2;
49462;PMS5003;35357;51.722;0.500;2023-07-28T13:52:45;2;2;
49462;PMS5003;35357;51.722;0.500;2023-07-28T13:55:13;3;3;
49462;PMS5003;35357;51.722;0.500;2023-07-28T13:57:40;4;4;
49462;PMS5003;35357;51.722;0.500;2023-07-28T14:00:08;2;2;
49462;PMS5003;35357;51.722;0.500;2023-07-28T14:02:36;1;1;
49462;PMS5003;35357;51.722;0.500;2023-07-28T14:05:05;2;2;
49462;PMS5003;35357;51.722;0.500;2023-07-28T14:07:33;2;2;
49462;PMS5003;35357;51.722;0.500;2023-07-28T14:10:01;2;2;
49462;PMS5003;35357;51.722;0.500;2023-07-28T14:12:28;1;1;
49462;PMS5003;35357;51.722;0.500;2023-07-28T14:14:55;2;2;
49462;PMS5003;35357;51.722;0.500;2023-07-28T14:17:22;1;1;
49462;PMS5003;35357;51.722;0.500;2023-07-28T14:19:50;1;1;
49462;PMS5003;35357;51.722;0.500;2023-07-28T14:22:17;3;3;
49462;PMS5003;35357;51.722;0.500;2023-07-28T14:24:44;3;3;
49462;PMS5003;35357;51.722;0.500;2023-07-28T14:27:11;4;3;
49462;PMS5003;35357;51.722;0.500;2023-07-28T14:29:38;4;4;
49462;PMS5003;35357;51.722;0.500;2023-07-28T14:32:05;2;2;
49462;PMS5003;35357;51.722;0.500;2023-07-28T14:34:32;2;2;
49462;PMS5003;35357;51.722;0.500;2023-07-28T14:37:00;2;2;
49462;PMS5003;35357;51.722;0.500;2023-07-28T14:39:31;3;3;
49462;PMS5003;35357;51.722;0.500;2023-07-28T14:41:58;3;3;
49462;PMS5003;35357;51.722;0.500;2023-07-28T14:44:24;3;3;
49462;PMS5003;35357;51.722;0.500;2023-07-28T14:46:52;2;2;
49462;PMS5003;35357;51.722;0.500;2023-07-28T14:49:19;2;2;
49462;PMS5003;35357;51.722;0.500;2023-07-28T14:51:46;4;4;
49462;PMS5003;35357;51.722;0.500;2023-07-28T14:54:14;2;2;
49462;PMS5003;35357;51.722;0.500;2023-07-28T14:56:40;3;3;
49462;PMS5003;35357;51.722;0.500;2023-07-28T14:59:07;5;4;
49462;PMS5003;35357;51.722;0.500;2023-07-28T15:01:34;2;2;
49462;PMS5003;35357;51.722;0.500;2023-07-28T15:04:00;3;3;
49462;PMS5003;35357;51.722;0.500;2023-07-28T15:06:30;3;3;
49462;PMS5003;35357;51.722;0.500;2023-07-28T15:08:57;3;3;
49462;PMS5003;35357;51.722;0.500;2023-07-28T15:11:24;3;3;
49462;PMS5003;35357;51.722;0.500;2023-07-28T15:13:51;3;3;
49462;PMS5003;35357;51.722;0.500;2023-07-28T15:16:18;1;1;
49462;PMS5003;35357;51.722;0.500;2023-07-28T15:18:45;2;2;
49462;PMS5003;35357;51.722;0.500;2023-07-28T15:21:12;2;2;
49462;PMS5003;35357;51.722;0.500;2023-07-28T15:23:38;2;2;
49462;PMS5003;35357;51.722;0.500;2023-07-28T15:26:05;3;3;
49462;PMS5003;35357;51.722;0.500;2023-07-28T15:28:32;2;2;
49462;PMS5003;35357;51.722;0.500;2023-07-28T15:30:59;3;3;
49462;PMS5003;35357;51.722;0.500;2023-07-28T15:33:27;2;2;
49462;PMS5003;35357;51.722;0.500;2023-07-28T15:35:54;3;3;
49462;PMS5003;35357;51.722;0.500;2023-07-28T15:38:21;3;3;
49462;PMS5003;35357;51.722;0.500;2023-07-28T15:40:49;2;2;
49462;PMS5003;35357;51.722;0.500;2023-07-28T15:43:16;3;3;
49462;PMS5003;35357;51.722;0.500;2023-07-28T15:45:44;2;2;
49462;PMS5003;35357;51.722;0.500;2023-07-28T15:48:10;2;2;
49462;PMS5003;35357;51.722;0.500;2023-07-28T15:50:37;3;3;
49462;PMS5003;35357;51.722;0.500;2023-07-28T15:53:05;2;2;
49462;PMS5003;35357;51.722;0.500;2023-07-28T15:55:32;2;2;
49462;PMS5003;35357;51.722;0.500;2023-07-28T15:58:00;2;2;
49462;PMS5003;35357;51.722;0.500;2023-07-28T16:00:27;2;2;
49462;PMS5003;35357;51.722;0.500;2023-07-28T16:02:55;3;2;
49462;PMS5003;35357;51.722;0.500;2023-07-28T16:05:21;2;2;
49462;PMS5003;35357;51.722;0.500;2023-07-28T16:07:49;3;3;
49462;PMS5003;35357;51.722;0.500;2023-07-28T16:10:17;3;3;
49462;PMS5003;35357;51.722;0.500;2023-07-28T16:12:44;3;3;
49462;PMS5003;35357;51.722;0.500;2023-07-28T16:15:11;2;2;
49462;PMS5003;35357;51.722;0.500;2023-07-28T16:17:38;3;3;
49462;PMS5003;35357;51.722;0.500;2023-07-28T16:20:06;1;1;
49462;PMS5003;35357;51.722;0.500;2023-07-28T16:22:33;4;4;
49462;PMS5003;35357;51.722;0.500;2023-07-28T16:25:00;3;3;
49462;PMS5003;35357;51.722;0.500;2023-07-28T16:27:28;4;3;
49462;PMS5003;35357;51.722;0.500;2023-07-28T16:29:54;3;2;
49462;PMS5003;35357;51.722;0.500;2023-07-28T16:32:22;2;2;
49462;PMS5003;35357;51.722;0.500;2023-07-28T16:34:50;2;2;
49462;PMS5003;35357;51.722;0.500;2023-07-28T16:37:17;3;3;
49462;PMS5003;35357;51.722;0.500;2023-07-28T16:39:44;3;3;
49462;PMS5003;35357;51.722;0.500;2023-07-28T16:42:11;5;5;
49462;PMS5003;35357;51.722;0.500;2023-07-28T16:44:38;1;1;
49462;PMS5003;35357;51.722;0.500;2023-07-28T16:47:05;2;2;
49462;PMS5003;35357;51.722;0.500;2023-07-28T16:49:33;1;1;
49462;PMS5003;35357;51.722;0.500;2023-07-28T16:52:00;4;4;
49462;PMS5003;35357;51.722;0.500;2023-07-28T16:54:28;3;3;
49462;PMS5003;35357;51.722;0.500;2023-07-28T16:56:56;2;1;